Карточка аэропорта USNN

Внимание!
Информация на этой странице в стадии наполнения.
Если вы не увидели какой-то информации, или заметили неточность - пожалуйста сообщите нам!
Спасибо!
Команда RU-STAFF
Название аэропортаНижневартовск
Название аэропорта (англ.)Nizhnevartovsk
Превышение177 ft. (53.9 m.)
Координаты60°57', 76°28.998'
Высота перехода800m
Эшелон переходаQFE>=756mm:FL040; QFE<756=>729:FL050; QFE<729:FL060
Коды ответчика5630-5633
Зона ОрВДТюмень РПИ (USTV)
Данные METARUSNN 121930Z 17004MPS 6000 -SN OVC005 M02/M02 Q0993 R21/491034 TEMPO 1000 SN RMK QFE740
Проноз погоды (TAF)USNN 121915Z 1219/1318 17005G12MPS 2500 -SN BKN006 OVC016 TEMPO 1219/1303 1000 SHSN FZRA BKN003 BKN015CB BECMG 1300/1302 22003G10MPS BECMG 1303/1304 6000 -SN BKN016 BECMG 1306/1307 9999 NSW
NOTAMshow/hide NOTAM
AWOS   TABLE

Информация о ВПП

ВПП Длина ВПП (м.) Покрытие Курс ВПП Частота ILS
033200Асфальтобетон26110.5
213200Асфальтобетон206111.9

Диспетчерские позиции

Позывной Наименование органа УВД Частота
USNN_TWRНижневартовск - Вышка118.100
USNN_APPНижневартовск - Круг120.400



Спутниковое изображение